createdAt,value
2022-11-08T00:01:22.046Z,2.92
2022-11-08T00:04:20.470Z,2.97
2022-11-08T00:07:36.425Z,3.55
2022-11-08T00:10:51.637Z,3.28
2022-11-08T00:13:58.893Z,2.92
2022-11-08T00:16:55.709Z,3.38
2022-11-08T00:19:53.158Z,3.25
2022-11-08T00:22:49.981Z,2.67
2022-11-08T00:25:54.405Z,3.15
2022-11-08T00:28:51.241Z,3.88
2022-11-08T00:31:48.109Z,3.47
2022-11-08T00:34:45.093Z,2.97
2022-11-08T00:37:41.909Z,3.17
2022-11-08T00:40:38.717Z,2.95
2022-11-08T00:43:35.626Z,2.92
2022-11-08T00:46:32.425Z,2.67
2022-11-08T00:49:29.301Z,3.00
2022-11-08T00:52:26.426Z,2.38
2022-11-08T00:55:23.240Z,3.03
2022-11-08T00:58:23.444Z,2.13
2022-11-08T01:01:24.438Z,2.35
2022-11-08T01:04:21.886Z,2.28
2022-11-08T01:07:18.946Z,2.22
2022-11-08T01:10:15.820Z,2.22
2022-11-08T01:13:13.765Z,2.60
2022-11-08T01:16:17.206Z,2.80
2022-11-08T01:19:14.101Z,2.80
2022-11-08T01:22:10.932Z,2.08
2022-11-08T01:25:08.066Z,2.85
2022-11-08T01:28:05.931Z,3.85
2022-11-08T01:31:13.899Z,3.00
2022-11-08T01:34:10.758Z,2.63
2022-11-08T01:37:07.636Z,2.45
2022-11-08T01:40:05.428Z,2.78
2022-11-08T01:43:35.768Z,3.67
2022-11-08T01:46:39.473Z,3.08
2022-11-08T01:49:46.024Z,2.70
2022-11-08T01:52:45.525Z,2.88
2022-11-08T01:55:42.906Z,2.63
2022-11-08T01:58:41.305Z,2.85
2022-11-08T02:01:38.439Z,2.72
2022-11-08T02:04:36.024Z,2.63
2022-11-08T02:07:34.677Z,2.45
2022-11-08T02:10:42.344Z,2.60
2022-11-08T02:13:40.315Z,2.83
2022-11-08T02:16:37.192Z,3.45
2022-11-08T02:19:45.625Z,2.20
2022-11-08T02:22:54.275Z,2.50
2022-11-08T02:25:51.144Z,2.95
2022-11-08T02:28:49.287Z,3.58
2022-11-08T02:31:46.143Z,3.75
2022-11-08T02:34:48.167Z,3.13
2022-11-08T02:37:46.902Z,2.90
2022-11-08T02:40:49.295Z,2.70
2022-11-08T02:43:46.149Z,2.92
2022-11-08T02:46:43.081Z,3.63
2022-11-08T02:49:40.034Z,2.80
2022-11-08T02:52:36.891Z,2.60
2022-11-08T02:55:35.193Z,2.90
2022-11-08T02:58:32.119Z,2.72
2022-11-08T03:01:29.135Z,3.67
2022-11-08T03:04:26.138Z,3.20
2022-11-08T03:07:25.036Z,3.00
2022-11-08T03:10:23.823Z,3.22
2022-11-08T03:13:20.859Z,2.83
2022-11-08T03:16:17.851Z,2.80
2022-11-08T03:19:14.733Z,3.20
2022-11-08T03:22:11.590Z,3.63
2022-11-08T03:25:08.704Z,2.97
2022-11-08T03:28:08.882Z,3.28
2022-11-08T03:31:06.011Z,3.35
2022-11-08T03:34:02.884Z,3.35
2022-11-08T03:37:00.275Z,3.03
2022-11-08T03:39:57.196Z,3.35
2022-11-08T03:42:57.469Z,3.00
2022-11-08T03:45:54.377Z,3.08
2022-11-08T03:48:51.231Z,2.80
2022-11-08T03:51:48.097Z,3.30
2022-11-08T03:54:44.930Z,3.50
2022-11-08T03:57:42.997Z,3.10
2022-11-08T04:00:40.142Z,3.65
2022-11-08T04:03:37.018Z,3.17
2022-11-08T04:06:33.916Z,3.63
2022-11-08T04:09:30.848Z,3.17
2022-11-08T04:12:46.397Z,2.85
2022-11-08T04:15:43.368Z,2.42
2022-11-08T04:18:58.783Z,2.97
2022-11-08T04:21:56.690Z,2.97
2022-11-08T04:24:53.564Z,3.30
2022-11-08T04:27:50.455Z,3.08
2022-11-08T04:31:13.285Z,3.55
2022-11-08T04:34:10.317Z,3.63
2022-11-08T04:37:08.468Z,4.32
2022-11-08T04:40:06.058Z,3.80
2022-11-08T04:43:02.898Z,3.33
2022-11-08T04:46:05.274Z,3.13
2022-11-08T04:49:02.159Z,3.33
2022-11-08T04:51:59.038Z,5.28
2022-11-08T04:54:55.845Z,4.93
2022-11-08T04:57:57.164Z,3.70
2022-11-08T05:00:54.005Z,4.75
2022-11-08T05:03:52.965Z,5.57
2022-11-08T05:06:49.916Z,4.57
2022-11-08T05:09:46.801Z,4.60
2022-11-08T05:12:43.723Z,4.97
2022-11-08T05:15:40.595Z,3.83
2022-11-08T05:18:37.456Z,4.25
2022-11-08T05:21:52.999Z,3.95
2022-11-08T05:24:49.860Z,4.68
2022-11-08T05:27:46.726Z,3.60
2022-11-08T05:30:43.696Z,3.60
2022-11-08T05:33:40.910Z,4.50
2022-11-08T05:36:37.761Z,3.92
2022-11-08T05:39:34.646Z,3.67
2022-11-08T05:42:31.467Z,4.22
2022-11-08T05:45:28.656Z,3.58
2022-11-08T05:48:25.733Z,4.25
2022-11-08T05:51:22.617Z,3.88
2022-11-08T05:54:19.427Z,3.80
2022-11-08T05:57:21.123Z,5.45
2022-11-08T06:00:20.175Z,6.20
2022-11-08T06:03:23.651Z,7.90
2022-11-08T06:06:22.127Z,7.68
2022-11-08T06:09:19.316Z,7.45
2022-11-08T06:12:16.178Z,7.32
2022-11-08T06:15:13.070Z,8.57
2022-11-08T06:18:09.887Z,6.93
2022-11-08T06:21:10.896Z,7.43
2022-11-08T06:24:08.144Z,8.00
2022-11-08T06:27:05.293Z,8.45
2022-11-08T06:30:03.672Z,7.80
2022-11-08T06:33:00.518Z,7.07
2022-11-08T06:35:57.582Z,8.23
2022-11-08T06:38:55.776Z,6.68
2022-11-08T06:41:52.615Z,11.40
2022-11-08T06:44:49.518Z,6.32
2022-11-08T06:47:46.693Z,7.47
2022-11-08T06:50:44.290Z,12.30
2022-11-08T06:53:41.556Z,21.70
2022-11-08T06:56:38.397Z,9.80
2022-11-08T06:59:35.225Z,6.80
2022-11-08T07:02:32.277Z,6.03
2022-11-08T07:05:31.531Z,6.75
2022-11-08T07:08:28.408Z,4.90
2022-11-08T07:11:25.663Z,5.00
2022-11-08T07:14:22.853Z,4.00
2022-11-08T07:17:19.670Z,4.72
2022-11-08T07:20:16.543Z,10.88
2022-11-08T07:23:14.563Z,8.30
2022-11-08T07:26:13.111Z,4.38
2022-11-08T07:29:14.771Z,6.97
2022-11-08T07:32:12.703Z,9.65
2022-11-08T07:35:09.820Z,6.00
2022-11-08T07:38:07.343Z,6.55
2022-11-08T07:41:07.257Z,7.45
2022-11-08T07:44:04.184Z,6.70
2022-11-08T07:47:01.089Z,12.93
2022-11-08T07:49:57.925Z,4.60
2022-11-08T07:52:55.060Z,3.05
2022-11-08T07:55:52.261Z,3.45
2022-11-08T07:58:49.188Z,5.18
2022-11-08T08:01:46.032Z,6.47
2022-11-08T08:04:42.981Z,4.38
2022-11-08T08:07:40.277Z,2.35
2022-11-08T08:10:37.550Z,2.85
2022-11-08T08:13:34.411Z,2.70
2022-11-08T08:16:31.430Z,2.90
2022-11-08T08:19:28.306Z,2.35
2022-11-08T08:22:25.191Z,2.60
2022-11-08T08:25:22.293Z,2.65
2022-11-08T08:28:19.115Z,2.10
2022-11-08T08:31:16.309Z,2.20
2022-11-08T08:34:15.559Z,3.10
2022-11-08T08:37:15.363Z,2.15
2022-11-08T08:40:12.560Z,1.67
2022-11-08T08:43:09.380Z,2.35
2022-11-08T08:46:07.286Z,2.95
2022-11-08T08:49:04.640Z,2.50
2022-11-08T08:52:01.907Z,2.13
2022-11-08T08:54:58.862Z,2.50
2022-11-08T08:57:56.521Z,2.15
2022-11-08T09:04:10.280Z,2.35
2022-11-08T09:07:07.486Z,2.88
2022-11-08T09:10:07.060Z,3.47
2022-11-08T09:13:04.228Z,2.40
2022-11-08T09:16:02.866Z,2.78
2022-11-08T09:18:59.757Z,2.53
2022-11-08T09:21:56.659Z,2.33
2022-11-08T09:24:53.646Z,2.60
2022-11-08T09:27:51.020Z,2.45
2022-11-08T09:30:47.852Z,3.13
2022-11-08T09:33:44.691Z,4.45
2022-11-08T09:36:41.525Z,3.97
2022-11-08T09:39:38.396Z,6.40
2022-11-08T09:43:21.101Z,2.60
2022-11-08T09:46:38.210Z,2.08
2022-11-08T09:50:06.566Z,2.95
2022-11-08T09:53:19.047Z,1.98
2022-11-08T09:56:23.483Z,1.83
2022-11-08T09:59:32.565Z,1.90
2022-11-08T10:02:30.651Z,1.13
2022-11-08T10:05:34.874Z,1.02
2022-11-08T10:08:44.118Z,1.25
2022-11-08T10:12:09.738Z,2.30
2022-11-08T10:16:01.101Z,1.25
2022-11-08T10:19:09.750Z,1.25
2022-11-08T10:22:27.225Z,0.98
2022-11-08T10:25:38.387Z,1.10
2022-11-08T10:28:41.856Z,1.10
2022-11-08T10:31:41.757Z,1.10
2022-11-08T10:35:44.203Z,1.63
2022-11-08T10:38:59.930Z,0.82
2022-11-08T10:42:18.341Z,1.10
2022-11-08T10:45:15.247Z,0.75
2022-11-08T10:48:12.709Z,0.73
2022-11-08T10:51:09.550Z,1.00
2022-11-08T10:54:07.313Z,0.90
2022-11-08T10:57:04.219Z,1.00
2022-11-08T11:00:19.726Z,0.85
2022-11-08T11:03:28.798Z,1.08
2022-11-08T11:06:32.861Z,0.85
2022-11-08T11:09:29.909Z,1.67
2022-11-08T11:12:26.888Z,1.05
2022-11-08T11:15:23.751Z,1.10
2022-11-08T11:18:49.088Z,1.13
2022-11-08T11:21:54.564Z,0.80
2022-11-08T11:24:54.104Z,0.80
2022-11-08T11:28:00.853Z,1.10
2022-11-08T11:31:13.128Z,1.40
2022-11-08T11:34:19.031Z,0.82
2022-11-08T11:37:34.114Z,1.15
2022-11-08T11:40:45.612Z,2.72
2022-11-08T11:43:56.541Z,4.80
2022-11-08T11:50:41.680Z,1.25
2022-11-08T11:53:39.790Z,0.90
2022-11-08T11:57:16.738Z,1.00
2022-11-08T12:00:16.138Z,1.02
2022-11-08T12:03:39.062Z,1.10
2022-11-08T12:07:19.170Z,1.42
2022-11-08T12:10:50.297Z,1.23
2022-11-08T12:13:59.751Z,1.20
2022-11-08T12:17:19.057Z,1.52
2022-11-08T12:20:35.522Z,1.15
2022-11-08T12:24:18.111Z,1.27
2022-11-08T12:27:50.021Z,1.00
2022-11-08T12:31:03.058Z,1.30
2022-11-08T12:34:33.587Z,1.42
2022-11-08T12:37:33.078Z,1.13
2022-11-08T12:40:51.204Z,1.35
2022-11-08T12:44:09.774Z,1.35
2022-11-08T12:47:28.924Z,1.35
2022-11-08T12:50:56.324Z,1.40
2022-11-08T12:54:36.514Z,1.50
2022-11-08T12:57:33.509Z,1.20
2022-11-08T13:00:31.029Z,1.48
2022-11-08T13:03:51.597Z,1.20
2022-11-08T13:07:19.015Z,1.77
2022-11-08T13:10:24.781Z,1.42
2022-11-08T13:13:58.449Z,1.15
2022-11-08T13:17:20.168Z,1.20
2022-11-08T13:20:48.227Z,1.55
2022-11-08T13:23:45.284Z,1.95
2022-11-08T13:26:43.362Z,1.27
2022-11-08T13:29:40.753Z,1.42
2022-11-08T13:32:43.882Z,1.15
2022-11-08T13:35:53.008Z,1.30
2022-11-08T13:39:22.767Z,1.17
2022-11-08T13:42:19.859Z,1.13
2022-11-08T13:45:17.117Z,1.42
2022-11-08T13:48:26.529Z,1.60
2022-11-08T13:51:33.614Z,1.20
2022-11-08T13:54:50.890Z,1.05
2022-11-08T13:57:58.727Z,1.10
2022-11-08T14:00:56.132Z,1.50
2022-11-08T14:03:56.275Z,1.20
2022-11-08T14:07:25.386Z,1.13
2022-11-08T14:10:39.919Z,1.15
2022-11-08T14:14:17.220Z,1.33
2022-11-08T14:17:29.885Z,1.13
2022-11-08T14:20:34.818Z,1.17
2022-11-08T14:23:36.482Z,0.88
2022-11-08T14:26:33.332Z,1.27
2022-11-08T14:29:30.383Z,1.52
2022-11-08T14:32:27.341Z,1.15
2022-11-08T14:35:25.952Z,1.20
2022-11-08T14:38:23.131Z,1.15
2022-11-08T14:41:27.793Z,1.30
2022-11-08T14:44:26.088Z,1.45
2022-11-08T14:47:27.583Z,0.90
2022-11-08T14:50:32.571Z,1.20
2022-11-08T14:53:33.686Z,1.38
2022-11-08T14:56:38.720Z,1.40
2022-11-08T14:59:35.578Z,1.30
2022-11-08T15:02:33.464Z,1.90
2022-11-08T15:05:55.120Z,1.50
2022-11-08T15:08:55.154Z,1.67
2022-11-08T15:11:58.225Z,1.38
2022-11-08T15:15:00.474Z,2.00
2022-11-08T15:18:15.074Z,1.60
2022-11-08T15:21:11.823Z,1.00
2022-11-08T15:24:15.251Z,1.63
2022-11-08T15:27:11.951Z,9.68
2022-11-08T15:30:17.153Z,2.70
2022-11-08T15:33:35.554Z,2.42
2022-11-08T15:36:36.163Z,3.08
2022-11-08T15:39:39.653Z,2.33
2022-11-08T15:42:45.764Z,14.68
2022-11-08T15:45:53.405Z,26.13
2022-11-08T15:48:57.750Z,15.38
2022-11-08T15:51:58.526Z,5.35
2022-11-08T15:57:52.587Z,19.50
2022-11-08T16:00:50.147Z,6.78
2022-11-08T16:03:48.428Z,2.97
2022-11-08T16:06:45.460Z,8.38
2022-11-08T16:09:42.385Z,5.90
2022-11-08T16:12:42.828Z,7.38
2022-11-08T16:15:39.703Z,11.88
2022-11-08T16:18:36.634Z,12.30
2022-11-08T16:21:33.473Z,22.27
2022-11-08T16:24:30.372Z,17.30
2022-11-08T16:27:27.209Z,17.95
2022-11-08T16:30:24.444Z,25.85
2022-11-08T16:33:24.396Z,19.35
2022-11-08T16:36:24.644Z,19.60
2022-11-08T16:39:28.259Z,20.27
2022-11-08T16:42:25.855Z,20.67
2022-11-08T16:45:43.423Z,60.60
2022-11-08T16:48:47.384Z,31.55
2022-11-08T16:51:44.222Z,27.05
2022-11-08T16:54:41.119Z,28.08
2022-11-08T16:57:37.927Z,26.10
2022-11-08T17:00:34.957Z,27.85
2022-11-08T17:03:32.600Z,19.20
2022-11-08T17:06:29.472Z,18.92
2022-11-08T17:09:26.523Z,26.40
2022-11-08T17:12:23.461Z,14.65
2022-11-08T17:15:27.249Z,17.50
2022-11-08T17:18:24.254Z,17.80
2022-11-08T17:24:38.676Z,21.10
2022-11-08T17:27:35.559Z,18.25
2022-11-08T17:30:32.734Z,21.23
2022-11-08T17:33:29.719Z,14.25
2022-11-08T17:36:26.576Z,14.07
2022-11-08T17:39:23.426Z,15.30
2022-11-08T17:42:20.220Z,20.48
2022-11-08T17:45:17.057Z,44.67
2022-11-08T17:48:13.915Z,34.50
2022-11-08T17:51:12.021Z,22.13
2022-11-08T17:54:08.913Z,14.45
2022-11-08T17:57:05.743Z,24.10
2022-11-08T18:00:08.600Z,16.80
2022-11-08T18:03:12.556Z,27.85
2022-11-08T18:06:13.224Z,21.23
2022-11-08T18:09:10.470Z,19.75
2022-11-08T18:12:07.397Z,17.80
2022-11-08T18:15:06.179Z,14.43
2022-11-08T18:18:03.207Z,12.73
2022-11-08T18:21:00.013Z,38.50
2022-11-08T18:23:59.759Z,18.17
2022-11-08T18:26:56.743Z,36.10
2022-11-08T18:29:53.567Z,34.72
2022-11-08T18:32:50.472Z,49.10
2022-11-08T18:35:47.463Z,25.83
2022-11-08T18:38:45.814Z,13.10
2022-11-08T18:41:42.683Z,31.13
2022-11-08T18:44:40.600Z,25.83
2022-11-08T18:47:37.440Z,23.30
2022-11-08T18:50:35.403Z,10.50
2022-11-08T18:53:32.811Z,11.32
2022-11-08T18:56:29.827Z,23.65
2022-11-08T18:59:26.659Z,8.95
2022-11-08T19:02:23.717Z,6.47
2022-11-08T19:05:20.547Z,12.40
2022-11-08T19:08:21.945Z,11.15
2022-11-08T19:11:22.769Z,9.35
2022-11-08T19:17:16.706Z,10.48
2022-11-08T19:20:13.652Z,9.88
2022-11-08T19:23:10.574Z,10.77
2022-11-08T19:26:17.931Z,12.93
2022-11-08T19:29:14.762Z,11.02
2022-11-08T19:32:11.658Z,10.57
2022-11-08T19:35:08.798Z,6.13
2022-11-08T19:38:06.080Z,7.22
2022-11-08T19:41:06.606Z,5.68
2022-11-08T19:44:05.295Z,5.95
2022-11-08T19:47:02.199Z,9.00
2022-11-08T19:49:59.010Z,8.52
2022-11-08T19:52:55.885Z,6.22
2022-11-08T19:56:04.889Z,6.20
2022-11-08T19:59:02.449Z,13.93
2022-11-08T20:01:59.999Z,7.80
2022-11-08T20:04:57.037Z,4.70
2022-11-08T20:07:53.917Z,5.65
2022-11-08T20:10:51.559Z,3.95
2022-11-08T20:13:48.610Z,6.45
2022-11-08T20:16:49.356Z,5.90
2022-11-08T20:19:50.702Z,6.13
2022-11-08T20:22:48.373Z,3.83
2022-11-08T20:25:45.270Z,3.20
2022-11-08T20:28:55.197Z,3.17
2022-11-08T20:31:54.344Z,2.72
2022-11-08T20:34:51.516Z,3.83
2022-11-08T20:37:48.457Z,4.65
2022-11-08T20:40:45.295Z,4.57
2022-11-08T20:43:44.659Z,6.68
2022-11-08T20:46:41.598Z,3.67
2022-11-08T20:49:38.445Z,4.43
2022-11-08T20:52:35.267Z,5.18
2022-11-08T20:55:32.358Z,3.67
2022-11-08T20:58:31.969Z,4.70
2022-11-08T21:01:30.590Z,2.70
2022-11-08T21:04:27.453Z,3.40
2022-11-08T21:10:43.199Z,3.28
2022-11-08T21:13:43.609Z,2.70
2022-11-08T21:17:06.589Z,2.37
2022-11-08T21:19:57.231Z,1.85
2022-11-08T21:22:54.049Z,1.88
2022-11-08T21:25:51.309Z,2.13
2022-11-08T21:28:48.231Z,2.55
2022-11-08T21:31:45.039Z,3.42
2022-11-08T21:34:45.827Z,4.07
2022-11-08T21:37:43.156Z,2.78
2022-11-08T21:40:40.067Z,3.20
2022-11-08T21:43:39.705Z,4.65
2022-11-08T21:46:36.554Z,4.90
2022-11-08T21:49:33.387Z,3.30
2022-11-08T21:52:30.349Z,2.92
2022-11-08T21:55:28.580Z,2.92
2022-11-08T21:58:25.426Z,3.50
2022-11-08T22:01:25.563Z,3.00
2022-11-08T22:04:26.574Z,3.45
2022-11-08T22:07:23.468Z,3.17
2022-11-08T22:10:20.414Z,2.90
2022-11-08T22:13:17.495Z,2.15
2022-11-08T22:16:14.361Z,2.65
2022-11-08T22:19:11.597Z,2.63
2022-11-08T22:22:09.085Z,2.83
2022-11-08T22:25:06.492Z,2.72
2022-11-08T22:28:03.336Z,3.20
2022-11-08T22:31:00.258Z,2.78
2022-11-08T22:33:57.176Z,2.35
2022-11-08T22:36:53.997Z,3.10
2022-11-08T22:39:50.814Z,2.20
2022-11-08T22:42:47.598Z,2.20
2022-11-08T22:45:44.626Z,2.60
2022-11-08T22:48:41.728Z,2.42
2022-11-08T22:51:39.921Z,1.83
2022-11-08T22:54:36.815Z,2.17
2022-11-08T22:57:33.604Z,2.05
2022-11-08T23:00:30.555Z,1.90
2022-11-08T23:03:27.372Z,1.92
2022-11-08T23:06:24.219Z,2.40
2022-11-08T23:09:21.126Z,1.65
2022-11-08T23:12:36.387Z,2.20
2022-11-08T23:15:53.635Z,2.00
2022-11-08T23:19:09.063Z,2.40
2022-11-08T23:22:28.538Z,2.35
2022-11-08T23:25:25.366Z,2.47
2022-11-08T23:28:41.119Z,2.50
2022-11-08T23:31:38.037Z,2.60
2022-11-08T23:34:34.836Z,2.10
2022-11-08T23:37:31.657Z,3.22
2022-11-08T23:40:47.282Z,2.63
2022-11-08T23:44:02.496Z,2.22
2022-11-08T23:47:01.119Z,2.50
2022-11-08T23:49:57.958Z,2.00
2022-11-08T23:52:54.790Z,1.80
2022-11-08T23:55:53.533Z,2.35
2022-11-08T23:58:55.974Z,2.40
